sensor_id;sensor_type;location;lat;lon;timestamp;pressure;altitude;pressure_sealevel;temperature;humidity
35151;BME280;55720;51.972;4.624;2023-03-23T00:01:16;99254.25;;;11.65;100.00
35151;BME280;55720;51.972;4.624;2023-03-23T00:03:48;99269.50;;;11.59;100.00
35151;BME280;55720;51.972;4.624;2023-03-23T00:06:14;99263.69;;;11.64;100.00
35151;BME280;55720;51.972;4.624;2023-03-23T00:08:43;99242.56;;;11.71;100.00
35151;BME280;55720;51.972;4.624;2023-03-23T00:11:20;99249.16;;;11.67;100.00
35151;BME280;55720;51.972;4.624;2023-03-23T00:13:47;99262.88;;;11.63;100.00
35151;BME280;55720;51.972;4.624;2023-03-23T00:16:16;99254.66;;;11.67;100.00
35151;BME280;55720;51.972;4.624;2023-03-23T01:30:41;99208.13;;;11.48;100.00
35151;BME280;55720;51.972;4.624;2023-03-23T01:33:07;99211.31;;;11.50;100.00
35151;BME280;55720;51.972;4.624;2023-03-23T01:35:33;99205.81;;;11.50;100.00
35151;BME280;55720;51.972;4.624;2023-03-23T01:37:58;99213.63;;;11.48;100.00
35151;BME280;55720;51.972;4.624;2023-03-23T01:40:26;99214.84;;;11.50;100.00
35151;BME280;55720;51.972;4.624;2023-03-23T01:42:52;99215.63;;;11.51;100.00
35151;BME280;55720;51.972;4.624;2023-03-23T01:45:32;99195.63;;;11.50;100.00
35151;BME280;55720;51.972;4.624;2023-03-23T01:48:29;99190.81;;;11.44;100.00
35151;BME280;55720;51.972;4.624;2023-03-23T01:51:09;99196.31;;;11.44;100.00
35151;BME280;55720;51.972;4.624;2023-03-23T01:53:39;99200.66;;;11.45;100.00
35151;BME280;55720;51.972;4.624;2023-03-23T01:56:06;99182.97;;;11.42;100.00
35151;BME280;55720;51.972;4.624;2023-03-23T01:58:35;99189.59;;;11.38;100.00
35151;BME280;55720;51.972;4.624;2023-03-23T02:01:04;99192.28;;;11.34;100.00
35151;BME280;55720;51.972;4.624;2023-03-23T02:03:32;99187.19;;;11.36;100.00
35151;BME280;55720;51.972;4.624;2023-03-23T02:05:58;99187.63;;;11.38;100.00
35151;BME280;55720;51.972;4.624;2023-03-23T02:08:28;99189.63;;;11.41;100.00
35151;BME280;55720;51.972;4.624;2023-03-23T02:10:54;99184.94;;;11.45;100.00
35151;BME280;55720;51.972;4.624;2023-03-23T02:13:20;99192.44;;;11.48;100.00
35151;BME280;55720;51.972;4.624;2023-03-23T02:18:40;99209.25;;;11.43;100.00
35151;BME280;55720;51.972;4.624;2023-03-23T02:21:42;99204.13;;;11.38;100.00
35151;BME280;55720;51.972;4.624;2023-03-23T02:24:27;99190.66;;;11.29;100.00
35151;BME280;55720;51.972;4.624;2023-03-23T02:27:00;99179.31;;;11.31;100.00
35151;BME280;55720;51.972;4.624;2023-03-23T02:29:56;99191.13;;;11.35;100.00
35151;BME280;55720;51.972;4.624;2023-03-23T02:35:08;99181.00;;;11.43;100.00
35151;BME280;55720;51.972;4.624;2023-03-23T02:40:16;99168.06;;;11.47;100.00
35151;BME280;55720;51.972;4.624;2023-03-23T02:42:46;99172.38;;;11.44;100.00
35151;BME280;55720;51.972;4.624;2023-03-23T02:45:13;99168.50;;;11.49;100.00
35151;BME280;55720;51.972;4.624;2023-03-23T02:47:41;99166.53;;;11.49;100.00
35151;BME280;55720;51.972;4.624;2023-03-23T02:50:11;99169.28;;;11.49;100.00
35151;BME280;55720;51.972;4.624;2023-03-23T02:52:37;99177.16;;;11.54;100.00
35151;BME280;55720;51.972;4.624;2023-03-23T02:55:05;99171.28;;;11.52;100.00
35151;BME280;55720;51.972;4.624;2023-03-23T02:57:31;99174.03;;;11.52;100.00
35151;BME280;55720;51.972;4.624;2023-03-23T02:59:57;99159.47;;;11.52;100.00
35151;BME280;55720;51.972;4.624;2023-03-23T03:02:25;99164.16;;;11.48;100.00
35151;BME280;55720;51.972;4.624;2023-03-23T03:10:53;99176.38;;;11.50;100.00
35151;BME280;55720;51.972;4.624;2023-03-23T03:19:18;99174.66;;;11.35;100.00
35151;BME280;55720;51.972;4.624;2023-03-23T03:21:47;99182.91;;;11.35;100.00
35151;BME280;55720;51.972;4.624;2023-03-23T03:24:17;99154.66;;;11.38;100.00
35151;BME280;55720;51.972;4.624;2023-03-23T03:26:48;99169.47;;;11.30;100.00
35151;BME280;55720;51.972;4.624;2023-03-23T03:29:18;99166.69;;;11.26;100.00
35151;BME280;55720;51.972;4.624;2023-03-23T03:31:45;99180.03;;;11.24;100.00
35151;BME280;55720;51.972;4.624;2023-03-23T03:34:12;99177.69;;;11.26;100.00
35151;BME280;55720;51.972;4.624;2023-03-23T03:36:44;99177.72;;;11.30;100.00
35151;BME280;55720;51.972;4.624;2023-03-23T03:39:11;99186.25;;;11.21;100.00
35151;BME280;55720;51.972;4.624;2023-03-23T03:41:38;99189.69;;;11.11;100.00
35151;BME280;55720;51.972;4.624;2023-03-23T03:44:04;99201.06;;;11.10;100.00
35151;BME280;55720;51.972;4.624;2023-03-23T03:46:30;99229.28;;;11.07;100.00
35151;BME280;55720;51.972;4.624;2023-03-23T03:48:57;99197.94;;;11.11;100.00
35151;BME280;55720;51.972;4.624;2023-03-23T03:51:23;99206.25;;;11.18;100.00
35151;BME280;55720;51.972;4.624;2023-03-23T03:53:49;99195.66;;;11.17;100.00
35151;BME280;55720;51.972;4.624;2023-03-23T03:56:15;99211.31;;;11.13;100.00
35151;BME280;55720;51.972;4.624;2023-03-23T03:58:41;99194.06;;;11.16;100.00
35151;BME280;55720;51.972;4.624;2023-03-23T04:01:08;99202.25;;;11.12;100.00
35151;BME280;55720;51.972;4.624;2023-03-23T04:03:35;99204.69;;;11.17;100.00
35151;BME280;55720;51.972;4.624;2023-03-23T04:06:02;99193.34;;;11.22;100.00
35151;BME280;55720;51.972;4.624;2023-03-23T04:08:28;99203.97;;;11.24;100.00
35151;BME280;55720;51.972;4.624;2023-03-23T04:10:54;99195.75;;;11.27;100.00
35151;BME280;55720;51.972;4.624;2023-03-23T04:13:20;99197.72;;;11.27;100.00
35151;BME280;55720;51.972;4.624;2023-03-23T04:15:46;99192.59;;;11.25;100.00
35151;BME280;55720;51.972;4.624;2023-03-23T04:18:12;99187.97;;;11.33;100.00
35151;BME280;55720;51.972;4.624;2023-03-23T04:20:38;99194.13;;;11.23;100.00
35151;BME280;55720;51.972;4.624;2023-03-23T04:23:04;99196.78;;;11.12;100.00
35151;BME280;55720;51.972;4.624;2023-03-23T04:25:30;99201.91;;;11.14;100.00
35151;BME280;55720;51.972;4.624;2023-03-23T04:27:58;99204.25;;;11.15;100.00
35151;BME280;55720;51.972;4.624;2023-03-23T04:30:26;99216.09;;;11.19;100.00
35151;BME280;55720;51.972;4.624;2023-03-23T04:32:53;99225.00;;;11.09;100.00
35151;BME280;55720;51.972;4.624;2023-03-23T04:35:22;99225.28;;;11.01;100.00
35151;BME280;55720;51.972;4.624;2023-03-23T04:37:50;99252.59;;;10.90;100.00
35151;BME280;55720;51.972;4.624;2023-03-23T04:40:16;99260.78;;;10.86;100.00
35151;BME280;55720;51.972;4.624;2023-03-23T04:42:42;99272.44;;;10.76;100.00
35151;BME280;55720;51.972;4.624;2023-03-23T04:45:13;99302.88;;;10.68;100.00
35151;BME280;55720;51.972;4.624;2023-03-23T04:47:40;99324.44;;;10.66;100.00
35151;BME280;55720;51.972;4.624;2023-03-23T04:50:11;99347.38;;;10.54;100.00
35151;BME280;55720;51.972;4.624;2023-03-23T04:52:39;99377.47;;;10.47;100.00
35151;BME280;55720;51.972;4.624;2023-03-23T04:55:06;99407.81;;;10.35;100.00
35151;BME280;55720;51.972;4.624;2023-03-23T04:57:32;99439.41;;;10.25;100.00
35151;BME280;55720;51.972;4.624;2023-03-23T04:59:58;99488.63;;;10.18;100.00
35151;BME280;55720;51.972;4.624;2023-03-23T05:02:24;99519.84;;;10.14;100.00
35151;BME280;55720;51.972;4.624;2023-03-23T05:04:50;99553.84;;;10.09;100.00
35151;BME280;55720;51.972;4.624;2023-03-23T05:07:16;99571.81;;;10.07;100.00
35151;BME280;55720;51.972;4.624;2023-03-23T05:09:41;99579.25;;;10.06;100.00
35151;BME280;55720;51.972;4.624;2023-03-23T05:12:09;99584.56;;;9.99;100.00
35151;BME280;55720;51.972;4.624;2023-03-23T05:14:35;99592.38;;;9.97;100.00
35151;BME280;55720;51.972;4.624;2023-03-23T05:17:01;99613.53;;;9.97;100.00
35151;BME280;55720;51.972;4.624;2023-03-23T05:19:26;99614.75;;;9.99;100.00
35151;BME280;55720;51.972;4.624;2023-03-23T05:21:54;99601.84;;;10.00;100.00
35151;BME280;55720;51.972;4.624;2023-03-23T05:24:22;99624.28;;;10.05;100.00
35151;BME280;55720;51.972;4.624;2023-03-23T05:26:47;99624.66;;;10.04;100.00
35151;BME280;55720;51.972;4.624;2023-03-23T05:29:14;99614.91;;;10.06;100.00
35151;BME280;55720;51.972;4.624;2023-03-23T05:31:40;99611.88;;;10.11;100.00
35151;BME280;55720;51.972;4.624;2023-03-23T05:34:06;99594.28;;;10.12;100.00
35151;BME280;55720;51.972;4.624;2023-03-23T05:36:31;99619.66;;;10.09;100.00
35151;BME280;55720;51.972;4.624;2023-03-23T05:38:57;99619.06;;;10.16;100.00
35151;BME280;55720;51.972;4.624;2023-03-23T05:41:25;99623.84;;;10.19;100.00
35151;BME280;55720;51.972;4.624;2023-03-23T05:43:50;99618.97;;;10.12;100.00
35151;BME280;55720;51.972;4.624;2023-03-23T05:46:16;99634.91;;;10.07;100.00
35151;BME280;55720;51.972;4.624;2023-03-23T05:48:42;99656.75;;;10.03;100.00
35151;BME280;55720;51.972;4.624;2023-03-23T05:51:08;99688.34;;;9.97;100.00
35151;BME280;55720;51.972;4.624;2023-03-23T05:53:33;99716.91;;;9.96;100.00
35151;BME280;55720;51.972;4.624;2023-03-23T05:56:01;99732.22;;;9.97;100.00
35151;BME280;55720;51.972;4.624;2023-03-23T05:58:27;99750.19;;;9.95;100.00
35151;BME280;55720;51.972;4.624;2023-03-23T06:00:52;99767.78;;;9.94;100.00
35151;BME280;55720;51.972;4.624;2023-03-23T06:03:18;99780.59;;;9.89;100.00
35151;BME280;55720;51.972;4.624;2023-03-23T06:05:44;99808.03;;;9.89;100.00
35151;BME280;55720;51.972;4.624;2023-03-23T06:08:10;99806.78;;;9.87;100.00
35151;BME280;55720;51.972;4.624;2023-03-23T06:10:36;99813.03;;;9.87;100.00
35151;BME280;55720;51.972;4.624;2023-03-23T06:13:02;99816.88;;;9.83;100.00
35151;BME280;55720;51.972;4.624;2023-03-23T06:15:28;99831.00;;;9.85;100.00
35151;BME280;55720;51.972;4.624;2023-03-23T06:18:01;99832.16;;;9.84;100.00
35151;BME280;55720;51.972;4.624;2023-03-23T06:20:28;99839.22;;;9.85;100.00
35151;BME280;55720;51.972;4.624;2023-03-23T06:22:54;99851.19;;;9.93;100.00
35151;BME280;55720;51.972;4.624;2023-03-23T06:25:19;99850.47;;;9.96;100.00
35151;BME280;55720;51.972;4.624;2023-03-23T06:27:45;99860.06;;;10.02;100.00
35151;BME280;55720;51.972;4.624;2023-03-23T06:30:17;99855.81;;;10.04;100.00
35151;BME280;55720;51.972;4.624;2023-03-23T06:32:44;99854.19;;;10.03;100.00
35151;BME280;55720;51.972;4.624;2023-03-23T06:35:13;99852.34;;;10.07;100.00
35151;BME280;55720;51.972;4.624;2023-03-23T06:37:38;99843.88;;;10.12;100.00
35151;BME280;55720;51.972;4.624;2023-03-23T06:40:05;99839.97;;;10.13;100.00
35151;BME280;55720;51.972;4.624;2023-03-23T06:42:34;99805.94;;;10.14;100.00
35151;BME280;55720;51.972;4.624;2023-03-23T06:44:59;99765.34;;;10.20;100.00
35151;BME280;55720;51.972;4.624;2023-03-23T06:47:26;99751.69;;;10.23;100.00
35151;BME280;55720;51.972;4.624;2023-03-23T06:49:54;99741.50;;;10.24;100.00
35151;BME280;55720;51.972;4.624;2023-03-23T06:52:19;99728.94;;;10.23;100.00
35151;BME280;55720;51.972;4.624;2023-03-23T06:54:45;99706.63;;;10.24;100.00
35151;BME280;55720;51.972;4.624;2023-03-23T06:57:10;99681.94;;;10.24;100.00
35151;BME280;55720;51.972;4.624;2023-03-23T06:59:36;99671.03;;;10.28;100.00
35151;BME280;55720;51.972;4.624;2023-03-23T07:02:02;99643.69;;;10.31;100.00
35151;BME280;55720;51.972;4.624;2023-03-23T07:04:27;99637.59;;;10.38;100.00
35151;BME280;55720;51.972;4.624;2023-03-23T07:06:53;99612.59;;;10.43;100.00
35151;BME280;55720;51.972;4.624;2023-03-23T07:09:18;99598.50;;;10.45;100.00
35151;BME280;55720;51.972;4.624;2023-03-23T07:11:43;99576.19;;;10.46;100.00
35151;BME280;55720;51.972;4.624;2023-03-23T07:14:10;99571.81;;;10.42;100.00
35151;BME280;55720;51.972;4.624;2023-03-23T07:16:36;99555.63;;;10.36;100.00
35151;BME280;55720;51.972;4.624;2023-03-23T07:19:01;99560.31;;;10.36;100.00
35151;BME280;55720;51.972;4.624;2023-03-23T07:21:27;99557.69;;;10.43;100.00
35151;BME280;55720;51.972;4.624;2023-03-23T07:23:52;99550.00;;;10.49;100.00
35151;BME280;55720;51.972;4.624;2023-03-23T07:26:17;99545.41;;;10.56;100.00
35151;BME280;55720;51.972;4.624;2023-03-23T07:28:43;99518.50;;;10.84;100.00
35151;BME280;55720;51.972;4.624;2023-03-23T07:31:11;99511.28;;;10.99;100.00
35151;BME280;55720;51.972;4.624;2023-03-23T07:33:36;99487.03;;;11.05;100.00
35151;BME280;55720;51.972;4.624;2023-03-23T07:36:03;99470.56;;;10.82;100.00
35151;BME280;55720;51.972;4.624;2023-03-23T07:38:29;99480.91;;;10.66;100.00
35151;BME280;55720;51.972;4.624;2023-03-23T07:40:55;99487.84;;;10.60;100.00
35151;BME280;55720;51.972;4.624;2023-03-23T07:43:21;99485.03;;;10.56;100.00
35151;BME280;55720;51.972;4.624;2023-03-23T07:45:47;99478.88;;;11.91;100.00
35151;BME280;55720;51.972;4.624;2023-03-23T07:48:13;99409.50;;;13.57;100.00
35151;BME280;55720;51.972;4.624;2023-03-23T07:50:38;99339.00;;;13.53;100.00
35151;BME280;55720;51.972;4.624;2023-03-23T07:53:04;99325.00;;;13.10;100.00
35151;BME280;55720;51.972;4.624;2023-03-23T07:55:30;99327.31;;;12.47;100.00
35151;BME280;55720;51.972;4.624;2023-03-23T07:57:55;99343.75;;;11.96;100.00
35151;BME280;55720;51.972;4.624;2023-03-23T08:00:22;99345.09;;;11.72;100.00
35151;BME280;55720;51.972;4.624;2023-03-23T08:02:56;99355.22;;;11.68;100.00
35151;BME280;55720;51.972;4.624;2023-03-23T08:05:23;99357.38;;;11.52;100.00
35151;BME280;55720;51.972;4.624;2023-03-23T08:07:50;99370.94;;;11.38;100.00
35151;BME280;55720;51.972;4.624;2023-03-23T08:10:17;99380.75;;;11.35;100.00
35151;BME280;55720;51.972;4.624;2023-03-23T08:12:44;99366.53;;;12.33;100.00
35151;BME280;55720;51.972;4.624;2023-03-23T08:15:12;99336.84;;;13.18;100.00
35151;BME280;55720;51.972;4.624;2023-03-23T08:17:39;99289.03;;;14.85;100.00
35151;BME280;55720;51.972;4.624;2023-03-23T08:20:06;99294.59;;;15.83;100.00
35151;BME280;55720;51.972;4.624;2023-03-23T08:22:38;99346.09;;;15.62;100.00
35151;BME280;55720;51.972;4.624;2023-03-23T08:25:05;99407.72;;;16.39;100.00
35151;BME280;55720;51.972;4.624;2023-03-23T08:27:32;99495.41;;;15.91;100.00
35151;BME280;55720;51.972;4.624;2023-03-23T08:29:57;99537.69;;;14.57;100.00
35151;BME280;55720;51.972;4.624;2023-03-23T08:32:22;99530.59;;;13.76;100.00
35151;BME280;55720;51.972;4.624;2023-03-23T08:34:49;99534.47;;;13.65;100.00
35151;BME280;55720;51.972;4.624;2023-03-23T08:37:15;99501.09;;;13.84;100.00
35151;BME280;55720;51.972;4.624;2023-03-23T08:39:42;99509.34;;;13.84;100.00
35151;BME280;55720;51.972;4.624;2023-03-23T08:42:27;99526.34;;;13.31;100.00
35151;BME280;55720;51.972;4.624;2023-03-23T08:44:52;99531.75;;;13.17;100.00
35151;BME280;55720;51.972;4.624;2023-03-23T08:47:18;99513.09;;;13.51;100.00
35151;BME280;55720;51.972;4.624;2023-03-23T08:49:44;99540.47;;;12.82;100.00
35151;BME280;55720;51.972;4.624;2023-03-23T08:52:11;99520.09;;;13.38;100.00
35151;BME280;55720;51.972;4.624;2023-03-23T08:54:36;99501.16;;;14.02;100.00
35151;BME280;55720;51.972;4.624;2023-03-23T08:57:03;99521.50;;;14.59;100.00
35151;BME280;55720;51.972;4.624;2023-03-23T08:59:29;99565.38;;;14.92;100.00
35151;BME280;55720;51.972;4.624;2023-03-23T09:01:54;99604.16;;;14.20;100.00
35151;BME280;55720;51.972;4.624;2023-03-23T09:04:20;99618.19;;;13.94;100.00
35151;BME280;55720;51.972;4.624;2023-03-23T09:06:46;99621.31;;;13.85;100.00
35151;BME280;55720;51.972;4.624;2023-03-23T09:09:12;99616.69;;;14.03;100.00
35151;BME280;55720;51.972;4.624;2023-03-23T09:11:38;99620.00;;;14.34;100.00
35151;BME280;55720;51.972;4.624;2023-03-23T09:14:05;99632.56;;;14.20;100.00
35151;BME280;55720;51.972;4.624;2023-03-23T09:16:31;99644.03;;;13.71;100.00
35151;BME280;55720;51.972;4.624;2023-03-23T09:18:58;99648.19;;;13.48;100.00
35151;BME280;55720;51.972;4.624;2023-03-23T09:21:25;99634.06;;;13.53;100.00
35151;BME280;55720;51.972;4.624;2023-03-23T09:23:51;99637.28;;;13.18;100.00
35151;BME280;55720;51.972;4.624;2023-03-23T09:26:17;99627.09;;;12.89;100.00
35151;BME280;55720;51.972;4.624;2023-03-23T09:28:42;99615.84;;;13.04;100.00
35151;BME280;55720;51.972;4.624;2023-03-23T09:31:09;99594.63;;;13.08;100.00
35151;BME280;55720;51.972;4.624;2023-03-23T09:33:36;99601.59;;;13.36;100.00
35151;BME280;55720;51.972;4.624;2023-03-23T09:36:02;99605.22;;;13.43;100.00
35151;BME280;55720;51.972;4.624;2023-03-23T09:38:28;99607.00;;;13.69;100.00
35151;BME280;55720;51.972;4.624;2023-03-23T09:46:04;99650.50;;;13.93;100.00
35151;BME280;55720;51.972;4.624;2023-03-23T09:48:45;99658.22;;;13.66;100.00
35151;BME280;55720;51.972;4.624;2023-03-23T09:54:03;99639.50;;;14.62;100.00
35151;BME280;55720;51.972;4.624;2023-03-23T09:56:34;99673.78;;;14.50;100.00
35151;BME280;55720;51.972;4.624;2023-03-23T09:59:07;99694.25;;;14.42;100.00
35151;BME280;55720;51.972;4.624;2023-03-23T10:01:43;99696.78;;;14.72;100.00
35151;BME280;55720;51.972;4.624;2023-03-23T10:04:41;99718.59;;;14.29;100.00
35151;BME280;55720;51.972;4.624;2023-03-23T10:07:29;99716.47;;;14.60;100.00
35151;BME280;55720;51.972;4.624;2023-03-23T10:09:56;99739.88;;;14.91;100.00
35151;BME280;55720;51.972;4.624;2023-03-23T10:12:30;99752.84;;;14.76;100.00
35151;BME280;55720;51.972;4.624;2023-03-23T10:17:45;99777.88;;;15.01;100.00
35151;BME280;55720;51.972;4.624;2023-03-23T10:22:45;99796.06;;;14.47;100.00
35151;BME280;55720;51.972;4.624;2023-03-23T10:30:27;99822.66;;;14.69;100.00
35151;BME280;55720;51.972;4.624;2023-03-23T10:33:08;99817.75;;;14.42;100.00
35151;BME280;55720;51.972;4.624;2023-03-23T10:35:39;99810.03;;;14.65;100.00
35151;BME280;55720;51.972;4.624;2023-03-23T10:38:23;99808.50;;;14.74;100.00
35151;BME280;55720;51.972;4.624;2023-03-23T10:40:56;99793.13;;;15.60;100.00
35151;BME280;55720;51.972;4.624;2023-03-23T10:43:23;99835.59;;;15.20;100.00
35151;BME280;55720;51.972;4.624;2023-03-23T10:46:00;99864.91;;;14.70;100.00
35151;BME280;55720;51.972;4.624;2023-03-23T10:48:33;99869.50;;;14.52;100.00
35151;BME280;55720;51.972;4.624;2023-03-23T10:51:03;99871.84;;;14.09;100.00
35151;BME280;55720;51.972;4.624;2023-03-23T10:53:36;99873.72;;;13.98;100.00
35151;BME280;55720;51.972;4.624;2023-03-23T10:56:03;99859.72;;;13.80;100.00
35151;BME280;55720;51.972;4.624;2023-03-23T10:58:35;99833.94;;;14.03;100.00
35151;BME280;55720;51.972;4.624;2023-03-23T11:01:03;99829.16;;;13.96;100.00
35151;BME280;55720;51.972;4.624;2023-03-23T11:03:44;99802.13;;;14.19;100.00
35151;BME280;55720;51.972;4.624;2023-03-23T11:06:20;99804.41;;;14.54;100.00
35151;BME280;55720;51.972;4.624;2023-03-23T11:08:53;99813.47;;;14.51;100.00
35151;BME280;55720;51.972;4.624;2023-03-23T11:13:57;99835.38;;;13.53;100.00
35151;BME280;55720;51.972;4.624;2023-03-23T11:16:28;99836.91;;;13.50;100.00
35151;BME280;55720;51.972;4.624;2023-03-23T11:18:54;99823.59;;;13.56;100.00
35151;BME280;55720;51.972;4.624;2023-03-23T11:21:22;99814.66;;;13.69;100.00
35151;BME280;55720;51.972;4.624;2023-03-23T11:23:54;99808.81;;;13.74;100.00
35151;BME280;55720;51.972;4.624;2023-03-23T11:26:40;99817.44;;;13.69;100.00
35151;BME280;55720;51.972;4.624;2023-03-23T11:29:17;99807.66;;;13.79;100.00
35151;BME280;55720;51.972;4.624;2023-03-23T11:31:49;99802.75;;;13.99;100.00
35151;BME280;55720;51.972;4.624;2023-03-23T11:34:21;99800.34;;;13.97;100.00
35151;BME280;55720;51.972;4.624;2023-03-23T11:39:53;99789.63;;;14.87;100.00
35151;BME280;55720;51.972;4.624;2023-03-23T11:42:22;99800.72;;;14.94;100.00
35151;BME280;55720;51.972;4.624;2023-03-23T11:44:53;99824.03;;;14.97;100.00
35151;BME280;55720;51.972;4.624;2023-03-23T11:47:34;99853.84;;;14.66;100.00
35151;BME280;55720;51.972;4.624;2023-03-23T11:50:12;99844.38;;;14.67;100.00
35151;BME280;55720;51.972;4.624;2023-03-23T11:52:49;99850.41;;;14.87;100.00
35151;BME280;55720;51.972;4.624;2023-03-23T11:55:23;99854.09;;;14.51;100.00
35151;BME280;55720;51.972;4.624;2023-03-23T11:57:51;99867.13;;;14.50;100.00
35151;BME280;55720;51.972;4.624;2023-03-23T12:00:20;99850.41;;;14.84;100.00
35151;BME280;55720;51.972;4.624;2023-03-23T12:03:06;99857.03;;;15.37;100.00
35151;BME280;55720;51.972;4.624;2023-03-23T12:05:56;99880.53;;;15.75;100.00
35151;BME280;55720;51.972;4.624;2023-03-23T12:14:18;99941.53;;;15.27;100.00
35151;BME280;55720;51.972;4.624;2023-03-23T12:22:42;99945.25;;;14.95;100.00
35151;BME280;55720;51.972;4.624;2023-03-23T12:33:56;99960.19;;;14.43;100.00
35151;BME280;55720;51.972;4.624;2023-03-23T12:36:31;99942.78;;;14.39;100.00
35151;BME280;55720;51.972;4.624;2023-03-23T12:39:10;99925.25;;;15.15;100.00
35151;BME280;55720;51.972;4.624;2023-03-23T12:44:41;99936.91;;;16.57;100.00
35151;BME280;55720;51.972;4.624;2023-03-23T12:50:03;99963.81;;;16.49;100.00
35151;BME280;55720;51.972;4.624;2023-03-23T12:55:25;99978.84;;;16.45;100.00
35151;BME280;55720;51.972;4.624;2023-03-23T12:57:57;99991.59;;;16.70;100.00
35151;BME280;55720;51.972;4.624;2023-03-23T13:00:29;100038.47;;;16.10;100.00
35151;BME280;55720;51.972;4.624;2023-03-23T13:03:18;100052.47;;;15.70;100.00
35151;BME280;55720;51.972;4.624;2023-03-23T13:06:05;100055.66;;;15.68;100.00
35151;BME280;55720;51.972;4.624;2023-03-23T13:11:40;100060.25;;;15.06;100.00
35151;BME280;55720;51.972;4.624;2023-03-23T13:14:20;100066.91;;;14.98;100.00
35151;BME280;55720;51.972;4.624;2023-03-23T13:28:22;100088.19;;;15.38;100.00
35151;BME280;55720;51.972;4.624;2023-03-23T13:31:42;100113.66;;;15.54;100.00
35151;BME280;55720;51.972;4.624;2023-03-23T13:34:10;100105.19;;;15.84;100.00
35151;BME280;55720;51.972;4.624;2023-03-23T13:37:00;100111.19;;;16.72;100.00
35151;BME280;55720;51.972;4.624;2023-03-23T13:39:33;100142.78;;;16.57;100.00
35151;BME280;55720;51.972;4.624;2023-03-23T13:42:20;100161.25;;;16.36;100.00
35151;BME280;55720;51.972;4.624;2023-03-23T14:08:02;100288.00;;;16.46;100.00
35151;BME280;55720;51.972;4.624;2023-03-23T14:10:34;100293.88;;;16.37;100.00
35151;BME280;55720;51.972;4.624;2023-03-23T14:13:02;100312.44;;;16.33;100.00
35151;BME280;55720;51.972;4.624;2023-03-23T14:15:30;100326.84;;;16.05;100.00
35151;BME280;55720;51.972;4.624;2023-03-23T14:18:01;100321.44;;;15.79;100.00
35151;BME280;55720;51.972;4.624;2023-03-23T14:20:31;100307.03;;;15.63;100.00
35151;BME280;55720;51.972;4.624;2023-03-23T14:22:59;100292.34;;;15.55;100.00
35151;BME280;55720;51.972;4.624;2023-03-23T14:25:29;100301.44;;;15.59;100.00
35151;BME280;55720;51.972;4.624;2023-03-23T14:27:56;100301.16;;;15.68;100.00
35151;BME280;55720;51.972;4.624;2023-03-23T14:30:27;100277.09;;;15.72;100.00
35151;BME280;55720;51.972;4.624;2023-03-23T14:33:05;100259.53;;;15.98;100.00
35151;BME280;55720;51.972;4.624;2023-03-23T14:35:35;100262.94;;;16.32;100.00
35151;BME280;55720;51.972;4.624;2023-03-23T14:38:01;100247.97;;;16.40;100.00
35151;BME280;55720;51.972;4.624;2023-03-23T14:40:28;100256.63;;;16.28;100.00
35151;BME280;55720;51.972;4.624;2023-03-23T14:42:54;100239.97;;;16.24;100.00
35151;BME280;55720;51.972;4.624;2023-03-23T14:45:22;100261.94;;;16.03;100.00
35151;BME280;55720;51.972;4.624;2023-03-23T14:47:51;100265.63;;;16.17;100.00
35151;BME280;55720;51.972;4.624;2023-03-23T14:53:25;100271.16;;;15.73;100.00
35151;BME280;55720;51.972;4.624;2023-03-23T14:55:52;100272.53;;;15.94;100.00
35151;BME280;55720;51.972;4.624;2023-03-23T14:58:22;100278.22;;;16.11;100.00
35151;BME280;55720;51.972;4.624;2023-03-23T15:00:56;100282.06;;;15.96;100.00
35151;BME280;55720;51.972;4.624;2023-03-23T15:03:24;100290.53;;;15.73;100.00
35151;BME280;55720;51.972;4.624;2023-03-23T15:05:58;100288.41;;;15.60;100.00
35151;BME280;55720;51.972;4.624;2023-03-23T15:08:28;100285.00;;;15.37;100.00
35151;BME280;55720;51.972;4.624;2023-03-23T15:13:28;100252.13;;;15.32;100.00
35151;BME280;55720;51.972;4.624;2023-03-23T15:16:01;100229.69;;;15.03;100.00
35151;BME280;55720;51.972;4.624;2023-03-23T15:18:34;100226.34;;;14.91;100.00
35151;BME280;55720;51.972;4.624;2023-03-23T15:21:09;100210.97;;;14.90;100.00
35151;BME280;55720;51.972;4.624;2023-03-23T15:23:40;100191.97;;;15.21;100.00
35151;BME280;55720;51.972;4.624;2023-03-23T15:26:26;100191.34;;;15.39;100.00
35151;BME280;55720;51.972;4.624;2023-03-23T15:31:33;100202.59;;;15.19;100.00
35151;BME280;55720;51.972;4.624;2023-03-23T15:34:00;100211.97;;;15.08;100.00
35151;BME280;55720;51.972;4.624;2023-03-23T15:36:32;100208.63;;;14.95;100.00
35151;BME280;55720;51.972;4.624;2023-03-23T15:38:58;100209.03;;;14.94;100.00
35151;BME280;55720;51.972;4.624;2023-03-23T15:41:30;100192.72;;;14.85;100.00
35151;BME280;55720;51.972;4.624;2023-03-23T15:44:09;100191.03;;;14.77;100.00
35151;BME280;55720;51.972;4.624;2023-03-23T15:46:35;100199.63;;;14.68;100.00
35151;BME280;55720;51.972;4.624;2023-03-23T15:51:28;100173.94;;;14.64;100.00
35151;BME280;55720;51.972;4.624;2023-03-23T15:53:55;100175.88;;;14.64;100.00
35151;BME280;55720;51.972;4.624;2023-03-23T15:56:21;100179.00;;;14.62;100.00
35151;BME280;55720;51.972;4.624;2023-03-23T15:58:47;100180.38;;;14.46;100.00
35151;BME280;55720;51.972;4.624;2023-03-23T16:01:17;100175.56;;;14.39;100.00
35151;BME280;55720;51.972;4.624;2023-03-23T16:06:13;100168.09;;;14.40;100.00
35151;BME280;55720;51.972;4.624;2023-03-23T16:08:39;100171.50;;;14.33;100.00
35151;BME280;55720;51.972;4.624;2023-03-23T16:11:09;100180.81;;;14.21;100.00
35151;BME280;55720;51.972;4.624;2023-03-23T16:13:35;100189.41;;;14.16;100.00
35151;BME280;55720;51.972;4.624;2023-03-23T16:16:00;100186.34;;;14.21;100.00